createdAt,value
2023-04-29T00:00:12.419Z,1.27
2023-04-29T00:02:40.611Z,1.20
2023-04-29T00:05:07.988Z,1.20
2023-04-29T00:07:36.515Z,2.28
2023-04-29T00:10:03.596Z,1.40
2023-04-29T00:12:32.467Z,1.40
2023-04-29T00:15:00.848Z,1.20
2023-04-29T00:17:28.058Z,1.30
2023-04-29T00:19:54.966Z,1.40
2023-04-29T00:22:22.742Z,1.10
2023-04-29T00:24:49.426Z,1.23
2023-04-29T00:27:17.722Z,1.20
2023-04-29T00:29:45.093Z,1.50
2023-04-29T00:32:12.244Z,1.30
2023-04-29T00:34:39.169Z,1.02
2023-04-29T00:37:06.030Z,1.25
2023-04-29T00:39:32.791Z,1.10
2023-04-29T00:41:59.743Z,1.20
2023-04-29T00:44:26.500Z,1.50
2023-04-29T00:46:53.139Z,1.30
2023-04-29T00:49:20.452Z,1.52
2023-04-29T00:51:47.982Z,1.10
2023-04-29T00:54:15.269Z,1.10
2023-04-29T00:56:45.454Z,1.38
2023-04-29T00:59:12.803Z,1.33
2023-04-29T01:01:39.700Z,1.33
2023-04-29T01:04:08.157Z,1.20
2023-04-29T01:06:42.571Z,1.10
2023-04-29T01:09:12.051Z,1.58
2023-04-29T01:11:54.356Z,1.20
2023-04-29T01:14:23.385Z,1.38
2023-04-29T01:16:59.641Z,1.40
2023-04-29T01:19:55.398Z,1.23
2023-04-29T01:22:22.768Z,1.58
2023-04-29T01:24:50.396Z,1.35
2023-04-29T01:27:23.632Z,1.50
2023-04-29T01:29:59.135Z,1.20
2023-04-29T01:32:43.016Z,1.50
2023-04-29T01:35:28.928Z,1.38
2023-04-29T01:38:03.224Z,1.38
2023-04-29T01:40:37.913Z,1.35
2023-04-29T01:43:15.825Z,1.40
2023-04-29T01:45:46.392Z,1.40
2023-04-29T01:48:15.647Z,1.50
2023-04-29T01:50:42.387Z,1.27
2023-04-29T01:53:13.286Z,1.50
2023-04-29T01:55:40.377Z,1.23
2023-04-29T01:58:36.249Z,1.38
2023-04-29T02:01:22.990Z,1.30
2023-04-29T02:03:49.900Z,1.40
2023-04-29T02:06:16.893Z,1.25
2023-04-29T02:08:46.245Z,1.33
2023-04-29T02:11:13.121Z,1.35
2023-04-29T02:13:41.692Z,1.30
2023-04-29T02:16:10.716Z,1.25
2023-04-29T02:18:41.043Z,1.55
2023-04-29T02:21:07.914Z,1.40
2023-04-29T02:23:35.872Z,1.40
2023-04-29T02:26:05.582Z,1.90
2023-04-29T02:28:33.208Z,1.70
2023-04-29T02:30:59.922Z,1.50
2023-04-29T02:33:26.829Z,1.27
2023-04-29T02:35:53.468Z,1.38
2023-04-29T02:38:20.207Z,1.80
2023-04-29T02:40:47.727Z,1.70
2023-04-29T02:43:15.378Z,1.23
2023-04-29T02:45:42.208Z,1.87
2023-04-29T02:48:09.099Z,1.50
2023-04-29T02:50:54.492Z,1.20
2023-04-29T02:53:40.139Z,1.40
2023-04-29T02:56:07.037Z,1.35
2023-04-29T02:58:33.812Z,1.70
2023-04-29T03:01:00.772Z,1.23
2023-04-29T03:03:27.744Z,1.65
2023-04-29T03:05:54.918Z,1.40
2023-04-29T03:08:22.396Z,1.23
2023-04-29T03:10:49.206Z,1.40
2023-04-29T03:13:16.090Z,1.50
2023-04-29T03:15:44.704Z,1.50
2023-04-29T03:18:13.387Z,1.40
2023-04-29T03:20:40.374Z,1.40
2023-04-29T03:23:07.195Z,1.30
2023-04-29T03:25:34.116Z,1.23
2023-04-29T03:28:00.980Z,1.50
2023-04-29T03:30:27.781Z,1.45
2023-04-29T03:32:57.508Z,1.33
2023-04-29T03:35:25.565Z,1.40
2023-04-29T03:38:15.099Z,1.50
2023-04-29T03:40:42.786Z,1.30
2023-04-29T03:43:09.576Z,1.55
2023-04-29T03:45:37.070Z,1.30
2023-04-29T03:48:06.247Z,1.50
2023-04-29T03:50:33.081Z,1.33
2023-04-29T03:52:59.891Z,1.70
2023-04-29T03:55:27.185Z,1.50
2023-04-29T03:57:53.966Z,1.40
2023-04-29T04:00:21.005Z,1.60
2023-04-29T04:02:53.152Z,1.40
2023-04-29T04:05:21.075Z,1.40
2023-04-29T04:07:53.228Z,1.63
2023-04-29T04:10:46.778Z,1.45
2023-04-29T04:13:37.265Z,1.40
2023-04-29T04:16:05.178Z,1.73
2023-04-29T04:18:31.911Z,1.67
2023-04-29T04:20:58.850Z,1.60
2023-04-29T04:23:26.394Z,1.40
2023-04-29T04:25:54.440Z,1.60
2023-04-29T04:28:44.176Z,1.40
2023-04-29T04:31:17.696Z,1.63
2023-04-29T04:33:45.521Z,1.40
2023-04-29T04:36:13.097Z,1.27
2023-04-29T04:38:39.883Z,1.40
2023-04-29T04:41:10.886Z,1.52
2023-04-29T04:43:41.011Z,1.58
2023-04-29T04:46:16.879Z,1.90
2023-04-29T04:49:04.099Z,1.80
2023-04-29T04:51:33.459Z,1.60
2023-04-29T04:54:00.205Z,1.60
2023-04-29T04:56:29.332Z,1.38
2023-04-29T04:58:56.491Z,1.80
2023-04-29T05:01:24.371Z,1.48
2023-04-29T05:03:51.389Z,1.57
2023-04-29T05:06:18.362Z,1.60
2023-04-29T05:08:47.115Z,1.70
2023-04-29T05:11:18.476Z,1.65
2023-04-29T05:13:49.788Z,1.88
2023-04-29T05:16:18.199Z,1.90
2023-04-29T05:18:47.123Z,1.70
2023-04-29T05:21:17.098Z,1.80
2023-04-29T05:23:44.696Z,1.75
2023-04-29T05:26:12.424Z,2.03
2023-04-29T05:28:39.905Z,2.07
2023-04-29T05:31:08.333Z,1.60
2023-04-29T05:33:35.885Z,1.80
2023-04-29T05:36:02.917Z,1.70
2023-04-29T05:38:29.848Z,1.90
2023-04-29T05:41:04.517Z,2.07
2023-04-29T05:43:43.659Z,2.10
2023-04-29T05:46:13.493Z,2.65
2023-04-29T05:48:40.503Z,1.90
2023-04-29T05:51:07.239Z,1.73
2023-04-29T05:53:35.854Z,2.37
2023-04-29T05:56:06.561Z,2.13
2023-04-29T05:58:33.412Z,1.70
2023-04-29T06:01:00.331Z,1.77
2023-04-29T06:03:28.360Z,1.60
2023-04-29T06:06:16.410Z,1.63
2023-04-29T06:09:03.165Z,1.90
2023-04-29T06:11:32.767Z,2.00
2023-04-29T06:14:01.633Z,1.67
2023-04-29T06:16:28.948Z,1.90
2023-04-29T06:18:55.990Z,1.80
2023-04-29T06:21:22.750Z,1.55
2023-04-29T06:23:49.443Z,1.85
2023-04-29T06:26:17.538Z,1.48
2023-04-29T06:28:44.627Z,1.75
2023-04-29T06:31:11.801Z,1.63
2023-04-29T06:33:38.983Z,1.67
2023-04-29T06:36:06.247Z,1.58
2023-04-29T06:38:35.655Z,1.80
2023-04-29T06:41:21.687Z,1.80
2023-04-29T06:44:00.448Z,1.60
2023-04-29T06:46:36.408Z,1.40
2023-04-29T06:49:07.716Z,1.50
2023-04-29T06:51:35.751Z,1.33
2023-04-29T06:54:02.679Z,1.70
2023-04-29T06:56:29.636Z,1.80
2023-04-29T06:58:56.339Z,1.50
2023-04-29T07:01:23.631Z,1.58
2023-04-29T07:03:51.437Z,1.77
2023-04-29T07:06:19.300Z,1.60
2023-04-29T07:08:46.124Z,1.30
2023-04-29T07:11:15.368Z,1.98
2023-04-29T07:13:42.046Z,1.38
2023-04-29T07:16:20.581Z,1.38
2023-04-29T07:18:49.459Z,1.52
2023-04-29T07:21:16.245Z,1.60
2023-04-29T07:23:43.403Z,1.50
2023-04-29T07:26:14.315Z,1.30
2023-04-29T07:28:47.262Z,1.42
2023-04-29T07:31:17.931Z,1.52
2023-04-29T07:33:46.152Z,1.23
2023-04-29T07:36:13.276Z,1.30
2023-04-29T07:38:40.769Z,1.40
2023-04-29T07:41:07.877Z,1.10
2023-04-29T07:43:35.438Z,1.30
2023-04-29T07:46:02.276Z,1.10
2023-04-29T07:48:29.555Z,1.38
2023-04-29T07:50:58.463Z,1.23
2023-04-29T07:53:31.758Z,1.13
2023-04-29T07:55:58.704Z,1.23
2023-04-29T07:58:32.864Z,1.40
2023-04-29T08:01:11.731Z,1.23
2023-04-29T08:03:41.489Z,1.40
2023-04-29T08:06:09.791Z,0.93
2023-04-29T08:08:36.716Z,1.10
2023-04-29T08:11:03.905Z,1.50
2023-04-29T08:13:30.890Z,1.10
2023-04-29T08:15:57.945Z,1.20
2023-04-29T08:18:25.168Z,1.27
2023-04-29T08:20:52.069Z,1.20
2023-04-29T08:23:18.804Z,1.30
2023-04-29T08:25:45.861Z,1.23
2023-04-29T08:28:13.044Z,1.30
2023-04-29T08:30:40.958Z,1.20
2023-04-29T08:33:08.404Z,1.13
2023-04-29T08:35:37.678Z,1.20
2023-04-29T08:38:09.294Z,1.05
2023-04-29T08:40:41.453Z,1.40
2023-04-29T08:43:10.308Z,1.20
2023-04-29T08:45:37.563Z,1.20
2023-04-29T08:48:07.796Z,1.20
2023-04-29T08:50:41.876Z,1.02
2023-04-29T08:53:09.690Z,1.42
2023-04-29T08:55:41.526Z,1.10
2023-04-29T08:58:09.201Z,1.20
2023-04-29T09:00:36.745Z,0.83
2023-04-29T09:03:27.123Z,0.90
2023-04-29T09:05:56.449Z,1.33
2023-04-29T09:08:24.347Z,1.10
2023-04-29T09:10:55.142Z,1.10
2023-04-29T09:13:28.724Z,1.20
2023-04-29T09:15:56.124Z,1.10
2023-04-29T09:19:01.699Z,1.00
2023-04-29T09:21:32.381Z,1.10
2023-04-29T09:24:01.357Z,0.90
2023-04-29T09:26:43.610Z,1.00
2023-04-29T09:29:14.036Z,0.85
2023-04-29T09:31:42.952Z,1.17
2023-04-29T09:34:14.835Z,0.82
2023-04-29T09:36:41.853Z,0.90
2023-04-29T09:39:13.417Z,0.90
2023-04-29T09:41:41.571Z,0.98
2023-04-29T09:44:09.831Z,0.90
2023-04-29T09:46:37.529Z,1.20
2023-04-29T09:49:23.393Z,0.73
2023-04-29T09:51:58.409Z,0.73
2023-04-29T09:54:30.645Z,0.90
2023-04-29T09:56:59.445Z,0.65
2023-04-29T09:59:26.925Z,0.75
2023-04-29T10:01:56.635Z,1.10
2023-04-29T10:04:26.321Z,0.93
2023-04-29T10:06:55.280Z,0.70
2023-04-29T10:09:23.585Z,0.70
2023-04-29T10:11:52.139Z,0.80
2023-04-29T10:14:20.763Z,0.90
2023-04-29T10:16:50.883Z,0.60
2023-04-29T10:19:26.379Z,0.70
2023-04-29T10:21:55.880Z,0.70
2023-04-29T10:24:24.055Z,0.70
2023-04-29T10:26:52.745Z,0.70
2023-04-29T10:29:21.063Z,0.60
2023-04-29T10:31:49.866Z,0.65
2023-04-29T10:34:17.906Z,0.63
2023-04-29T10:36:46.137Z,0.60
2023-04-29T10:39:21.008Z,0.90
2023-04-29T10:41:47.834Z,0.70
2023-04-29T10:44:14.995Z,0.60
2023-04-29T10:46:41.762Z,0.65
2023-04-29T10:49:10.926Z,0.60
2023-04-29T10:51:45.590Z,0.60
2023-04-29T10:54:16.719Z,0.60
2023-04-29T10:56:51.970Z,0.60
2023-04-29T10:59:28.458Z,0.77
2023-04-29T11:01:55.321Z,0.65
2023-04-29T11:04:23.069Z,0.63
2023-04-29T11:06:53.099Z,0.50
2023-04-29T11:09:30.986Z,0.70
2023-04-29T11:11:59.153Z,0.80
2023-04-29T11:14:50.336Z,0.70
2023-04-29T11:17:20.447Z,0.70
2023-04-29T11:19:50.767Z,0.60
2023-04-29T11:22:23.337Z,0.70
2023-04-29T11:24:54.443Z,0.70
2023-04-29T11:27:25.534Z,0.93
2023-04-29T11:29:58.210Z,0.90
2023-04-29T11:32:29.754Z,0.70
2023-04-29T11:35:16.568Z,0.80
2023-04-29T11:37:45.807Z,0.77
2023-04-29T11:40:14.112Z,1.08
2023-04-29T11:42:43.870Z,0.80
2023-04-29T11:45:18.118Z,0.80
2023-04-29T11:47:46.663Z,0.70
2023-04-29T11:50:19.589Z,0.80
2023-04-29T11:52:54.939Z,0.85
2023-04-29T11:55:21.869Z,0.60
2023-04-29T11:57:52.448Z,0.90
2023-04-29T12:00:20.880Z,0.80
2023-04-29T12:02:54.669Z,0.90
2023-04-29T12:05:21.579Z,0.70
2023-04-29T12:07:51.225Z,0.85
2023-04-29T12:10:18.232Z,0.80
2023-04-29T12:12:46.325Z,0.90
2023-04-29T12:15:13.492Z,0.93
2023-04-29T12:17:41.002Z,1.02
2023-04-29T12:20:12.727Z,0.85
2023-04-29T12:22:39.749Z,0.87
2023-04-29T12:25:08.031Z,0.73
2023-04-29T12:27:36.515Z,0.90
2023-04-29T12:30:08.247Z,0.90
2023-04-29T12:32:35.123Z,0.90
2023-04-29T12:35:01.805Z,0.90
2023-04-29T12:37:28.585Z,0.70
2023-04-29T12:39:55.884Z,0.80
2023-04-29T12:42:22.633Z,0.80
2023-04-29T12:44:49.564Z,0.77
2023-04-29T12:47:17.580Z,0.73
2023-04-29T12:49:46.490Z,0.80
2023-04-29T12:52:13.763Z,0.80
2023-04-29T12:54:44.279Z,0.80
2023-04-29T12:57:12.456Z,0.90
2023-04-29T12:59:41.360Z,0.73
2023-04-29T13:02:08.479Z,0.77
2023-04-29T13:04:35.869Z,0.80
2023-04-29T13:07:04.463Z,0.70
2023-04-29T13:09:31.500Z,0.70
2023-04-29T13:11:59.602Z,0.70
2023-04-29T13:14:30.025Z,0.80
2023-04-29T13:16:59.912Z,0.80
2023-04-29T13:19:46.956Z,0.80
2023-04-29T13:22:15.555Z,0.90
2023-04-29T13:24:42.496Z,0.90
2023-04-29T13:27:10.307Z,0.90
2023-04-29T13:29:41.394Z,0.80
2023-04-29T13:32:08.926Z,0.80
2023-04-29T13:34:35.992Z,1.00
2023-04-29T13:37:02.858Z,0.80
2023-04-29T13:39:30.418Z,0.80
2023-04-29T13:41:59.156Z,1.05
2023-04-29T13:44:33.213Z,0.90
2023-04-29T13:47:07.530Z,0.95
2023-04-29T13:50:10.000Z,1.13
2023-04-29T13:55:14.818Z,0.95
2023-04-29T13:58:31.085Z,0.90
2023-04-29T14:01:01.417Z,1.00
2023-04-29T14:03:15.419Z,0.80
2023-04-29T14:05:42.493Z,0.95
2023-04-29T14:08:09.535Z,1.17
2023-04-29T14:10:37.147Z,0.90
2023-04-29T14:13:03.935Z,0.85
2023-04-29T14:15:30.908Z,0.80
2023-04-29T14:17:57.673Z,0.90
2023-04-29T14:20:24.470Z,0.82
2023-04-29T14:22:51.240Z,0.90
2023-04-29T14:25:18.501Z,0.93
2023-04-29T14:27:45.545Z,1.10
2023-04-29T14:30:12.765Z,0.80
2023-04-29T14:32:40.447Z,0.80
2023-04-29T14:35:09.569Z,0.85
2023-04-29T14:37:45.714Z,0.90
2023-04-29T14:40:12.849Z,0.77
2023-04-29T14:42:39.553Z,0.80
2023-04-29T14:45:06.961Z,0.90
2023-04-29T14:47:34.452Z,0.90
2023-04-29T14:50:04.145Z,0.98
2023-04-29T14:52:30.927Z,0.93
2023-04-29T14:54:58.849Z,0.80
2023-04-29T14:57:25.619Z,1.17
2023-04-29T14:59:53.422Z,0.90
2023-04-29T15:02:20.134Z,0.90
2023-04-29T15:04:46.997Z,0.80
2023-04-29T15:07:13.884Z,0.80
2023-04-29T15:09:43.128Z,0.90
2023-04-29T15:12:10.415Z,0.70
2023-04-29T15:14:37.339Z,0.70
2023-04-29T15:17:07.740Z,0.70
2023-04-29T15:19:35.560Z,0.80
2023-04-29T15:22:02.266Z,0.80
2023-04-29T15:27:16.373Z,0.90
2023-04-29T15:29:43.185Z,0.87
2023-04-29T15:32:11.601Z,0.88
2023-04-29T15:34:38.496Z,0.80
2023-04-29T15:37:06.779Z,0.70
2023-04-29T15:39:33.697Z,0.80
2023-04-29T15:42:00.670Z,0.90
2023-04-29T15:44:27.402Z,0.95
2023-04-29T15:46:55.036Z,1.00
2023-04-29T15:49:24.625Z,1.00
2023-04-29T15:51:52.257Z,0.75
2023-04-29T15:54:19.085Z,0.80
2023-04-29T15:56:46.703Z,0.73
2023-04-29T15:59:15.792Z,0.98
2023-04-29T16:01:42.702Z,0.90
2023-04-29T16:04:09.681Z,0.70
2023-04-29T16:06:36.934Z,0.80
2023-04-29T16:09:05.032Z,0.80
2023-04-29T16:11:33.734Z,1.20
2023-04-29T16:14:00.520Z,0.82
2023-04-29T16:16:27.366Z,0.85
2023-04-29T16:18:54.715Z,0.97
2023-04-29T16:21:21.687Z,0.80
2023-04-29T16:23:48.458Z,0.85
2023-04-29T16:26:15.265Z,1.00
2023-04-29T16:28:41.990Z,0.80
2023-04-29T16:31:10.113Z,1.00
2023-04-29T16:33:36.812Z,1.08
2023-04-29T16:36:04.014Z,1.48
2023-04-29T16:38:32.547Z,0.80
2023-04-29T16:40:59.390Z,0.70
2023-04-29T16:43:26.069Z,0.80
2023-04-29T16:45:52.940Z,0.80
2023-04-29T16:48:19.646Z,0.88
2023-04-29T16:50:49.180Z,0.90
2023-04-29T16:53:18.279Z,0.85
2023-04-29T16:55:46.258Z,0.90
2023-04-29T16:58:13.205Z,0.85
2023-04-29T17:00:42.192Z,1.00
2023-04-29T17:03:09.815Z,0.73
2023-04-29T17:05:37.329Z,0.80
2023-04-29T17:08:04.531Z,0.60
2023-04-29T17:10:31.435Z,0.90
2023-04-29T17:12:59.341Z,0.90
2023-04-29T17:15:26.503Z,0.73
2023-04-29T17:17:55.037Z,0.90
2023-04-29T17:20:21.976Z,0.70
2023-04-29T17:22:48.866Z,0.90
2023-04-29T17:25:16.214Z,0.90
2023-04-29T17:27:45.133Z,0.80
2023-04-29T17:30:12.541Z,0.90
2023-04-29T17:32:39.572Z,0.90
2023-04-29T17:35:08.169Z,0.70
2023-04-29T17:37:35.548Z,0.73
2023-04-29T17:40:03.084Z,0.90
2023-04-29T17:42:32.839Z,0.90
2023-04-29T17:44:59.692Z,0.80
2023-04-29T17:47:26.611Z,0.90
2023-04-29T17:49:53.482Z,1.25
2023-04-29T17:52:21.501Z,0.80
2023-04-29T17:54:48.876Z,1.00
2023-04-29T17:57:15.780Z,1.00
2023-04-29T17:59:42.463Z,0.90
2023-04-29T18:02:09.211Z,1.40
2023-04-29T18:04:37.380Z,2.10
2023-04-29T18:07:04.284Z,3.83
2023-04-29T18:09:31.058Z,4.27
2023-04-29T18:11:57.903Z,1.08
2023-04-29T18:14:24.813Z,1.17
2023-04-29T18:16:51.957Z,1.20
2023-04-29T18:19:18.750Z,1.10
2023-04-29T18:21:45.448Z,1.50
2023-04-29T18:24:12.776Z,0.82
2023-04-29T18:26:39.392Z,1.20
2023-04-29T18:29:06.241Z,0.95
2023-04-29T18:31:33.130Z,1.00
2023-04-29T18:33:59.943Z,1.10
2023-04-29T18:36:35.140Z,1.20
2023-04-29T18:39:03.213Z,1.00
2023-04-29T18:41:30.049Z,1.27
2023-04-29T18:43:56.773Z,1.30
2023-04-29T18:46:24.433Z,1.27
2023-04-29T18:48:51.390Z,1.17
2023-04-29T18:51:18.148Z,1.30
2023-04-29T18:53:44.972Z,1.00
2023-04-29T18:56:11.967Z,1.30
2023-04-29T18:58:40.289Z,1.47
2023-04-29T19:01:16.103Z,1.10
2023-04-29T19:03:42.912Z,1.40
2023-04-29T19:06:09.606Z,1.20
2023-04-29T19:08:39.051Z,1.30
2023-04-29T19:11:05.862Z,1.43
2023-04-29T19:13:32.577Z,1.20
2023-04-29T19:15:59.727Z,1.45
2023-04-29T19:18:33.116Z,1.20
2023-04-29T19:21:00.430Z,1.50
2023-04-29T19:23:27.354Z,0.90
2023-04-29T19:25:54.327Z,1.10
2023-04-29T19:28:21.090Z,1.20
2023-04-29T19:30:48.025Z,1.20
2023-04-29T19:33:14.952Z,1.20
2023-04-29T19:35:41.668Z,1.20
2023-04-29T19:38:08.516Z,1.20
2023-04-29T19:40:40.965Z,1.40
2023-04-29T19:43:07.752Z,1.33
2023-04-29T19:45:35.410Z,1.30
2023-04-29T19:48:02.919Z,1.37
2023-04-29T19:50:29.787Z,1.23
2023-04-29T19:52:56.707Z,1.20
2023-04-29T19:55:23.463Z,1.20
2023-04-29T19:57:51.365Z,1.20
2023-04-29T20:00:18.572Z,1.13
2023-04-29T20:02:53.629Z,1.20
2023-04-29T20:05:20.578Z,1.42
2023-04-29T20:07:49.806Z,1.20
2023-04-29T20:10:16.630Z,1.35
2023-04-29T20:12:43.357Z,1.30
2023-04-29T20:15:10.366Z,1.20
2023-04-29T20:17:37.640Z,1.30
2023-04-29T20:20:05.542Z,1.30
2023-04-29T20:22:32.265Z,1.33
2023-04-29T20:25:05.236Z,1.30
2023-04-29T20:27:35.416Z,1.30
2023-04-29T20:30:02.540Z,1.40
2023-04-29T20:32:30.804Z,1.42
2023-04-29T20:34:57.728Z,1.30
2023-04-29T20:37:25.260Z,1.30
2023-04-29T20:39:52.252Z,1.48
2023-04-29T20:42:19.152Z,1.40
2023-04-29T20:44:46.258Z,1.10
2023-04-29T20:47:13.161Z,1.65
2023-04-29T20:49:40.085Z,1.37
2023-04-29T20:52:09.880Z,1.35
2023-04-29T20:54:36.808Z,1.50
2023-04-29T20:57:05.934Z,1.25
2023-04-29T20:59:34.018Z,1.35
2023-04-29T21:02:00.848Z,1.20
2023-04-29T21:04:35.425Z,1.30
2023-04-29T21:07:03.798Z,1.33
2023-04-29T21:09:30.506Z,1.50
2023-04-29T21:11:59.427Z,1.20
2023-04-29T21:14:27.091Z,1.30
2023-04-29T21:16:55.195Z,1.30
2023-04-29T21:19:21.955Z,1.13
2023-04-29T21:21:49.586Z,1.33
2023-04-29T21:24:16.223Z,1.45
2023-04-29T21:26:45.249Z,1.20
2023-04-29T21:29:12.081Z,1.50
2023-04-29T21:31:39.114Z,1.35
2023-04-29T21:34:06.103Z,1.27
2023-04-29T21:36:33.153Z,1.27
2023-04-29T21:38:59.811Z,1.43
2023-04-29T21:41:31.917Z,1.30
2023-04-29T21:44:00.399Z,1.60
2023-04-29T21:46:28.384Z,1.20
2023-04-29T21:48:57.505Z,1.30
2023-04-29T21:51:24.648Z,1.23
2023-04-29T21:53:51.429Z,1.33
2023-04-29T21:56:18.786Z,1.20
2023-04-29T21:58:48.882Z,1.40
2023-04-29T22:01:26.905Z,4.35
2023-04-29T22:03:55.093Z,1.40
2023-04-29T22:06:22.405Z,1.23
2023-04-29T22:08:49.345Z,1.10
2023-04-29T22:11:16.081Z,1.38
2023-04-29T22:13:45.088Z,1.42
2023-04-29T22:16:12.305Z,1.10
2023-04-29T22:18:39.185Z,1.35
2023-04-29T22:21:06.757Z,1.20
2023-04-29T22:23:33.455Z,1.30
2023-04-29T22:26:00.066Z,1.50
2023-04-29T22:28:26.948Z,1.30
2023-04-29T22:30:53.772Z,1.30
2023-04-29T22:33:20.497Z,1.52
2023-04-29T22:35:47.217Z,1.45
2023-04-29T22:38:14.073Z,1.40
2023-04-29T22:40:41.082Z,1.10
2023-04-29T22:43:07.878Z,1.30
2023-04-29T22:45:34.631Z,1.30
2023-04-29T22:48:01.499Z,1.15
2023-04-29T22:50:28.157Z,1.40
2023-04-29T22:52:54.851Z,0.90
2023-04-29T22:55:21.837Z,1.10
2023-04-29T22:57:52.929Z,1.20
2023-04-29T23:00:19.867Z,1.10
2023-04-29T23:02:46.602Z,1.10
2023-04-29T23:05:13.350Z,1.37
2023-04-29T23:07:40.038Z,1.20
2023-04-29T23:10:07.112Z,1.42
2023-04-29T23:12:33.847Z,1.17
2023-04-29T23:15:00.615Z,1.27
2023-04-29T23:17:27.441Z,1.30
2023-04-29T23:19:54.435Z,1.10
2023-04-29T23:22:21.358Z,1.55
2023-04-29T23:24:48.205Z,1.10
2023-04-29T23:27:14.959Z,1.33
2023-04-29T23:29:41.797Z,1.30
2023-04-29T23:32:08.729Z,1.20
2023-04-29T23:34:35.576Z,1.30
2023-04-29T23:37:02.243Z,1.25
2023-04-29T23:39:28.964Z,1.00
2023-04-29T23:41:56.290Z,1.00
2023-04-29T23:44:23.284Z,1.10
2023-04-29T23:46:49.898Z,1.25
2023-04-29T23:49:16.631Z,1.20
2023-04-29T23:51:43.278Z,1.30
2023-04-29T23:54:10.016Z,1.10
2023-04-29T23:56:36.731Z,1.10
2023-04-29T23:59:03.564Z,1.10
